sensor_id;sensor_type;location;lat;lon;timestamp;P1;durP1;ratioP1;P2;durP2;ratioP2
15673;SDS011;7937;48.090;16.212;2024-03-23T00:55:50;3.33;;;2.90;;
15673;SDS011;7937;48.090;16.212;2024-03-23T00:58:52;3.83;;;2.93;;
15673;SDS011;7937;48.090;16.212;2024-03-23T01:01:53;6.33;;;3.30;;
15673;SDS011;7937;48.090;16.212;2024-03-23T01:04:54;3.20;;;2.90;;
15673;SDS011;7937;48.090;16.212;2024-03-23T01:07:55;5.93;;;3.33;;
15673;SDS011;7937;48.090;16.212;2024-03-23T01:10:56;4.33;;;2.87;;
15673;SDS011;7937;48.090;16.212;2024-03-23T01:13:59;5.03;;;3.00;;
15673;SDS011;7937;48.090;16.212;2024-03-23T01:17:00;5.83;;;2.90;;
15673;SDS011;7937;48.090;16.212;2024-03-23T01:20:01;2.97;;;2.63;;
15673;SDS011;7937;48.090;16.212;2024-03-23T01:23:03;3.10;;;2.77;;
15673;SDS011;7937;48.090;16.212;2024-03-23T01:26:04;3.53;;;2.73;;
15673;SDS011;7937;48.090;16.212;2024-03-23T01:29:05;7.07;;;3.10;;
15673;SDS011;7937;48.090;16.212;2024-03-23T01:32:06;8.17;;;3.03;;
15673;SDS011;7937;48.090;16.212;2024-03-23T01:35:08;4.50;;;3.10;;
15673;SDS011;7937;48.090;16.212;2024-03-23T01:38:09;4.73;;;2.60;;
15673;SDS011;7937;48.090;16.212;2024-03-23T01:41:10;3.17;;;2.73;;
15673;SDS011;7937;48.090;16.212;2024-03-23T01:44:11;4.23;;;2.33;;
15673;SDS011;7937;48.090;16.212;2024-03-23T01:47:12;3.57;;;2.70;;
15673;SDS011;7937;48.090;16.212;2024-03-23T01:50:13;4.10;;;2.90;;
15673;SDS011;7937;48.090;16.212;2024-03-23T01:53:14;4.20;;;3.27;;
15673;SDS011;7937;48.090;16.212;2024-03-23T01:56:18;3.87;;;3.00;;
15673;SDS011;7937;48.090;16.212;2024-03-23T01:59:19;2.87;;;2.47;;
15673;SDS011;7937;48.090;16.212;2024-03-23T02:02:20;3.57;;;3.17;;
15673;SDS011;7937;48.090;16.212;2024-03-23T02:05:21;4.00;;;2.70;;
15673;SDS011;7937;48.090;16.212;2024-03-23T02:08:23;6.93;;;3.13;;
15673;SDS011;7937;48.090;16.212;2024-03-23T02:11:24;3.57;;;3.27;;
15673;SDS011;7937;48.090;16.212;2024-03-23T02:14:25;3.10;;;2.47;;
15673;SDS011;7937;48.090;16.212;2024-03-23T02:17:27;3.03;;;2.50;;
15673;SDS011;7937;48.090;16.212;2024-03-23T02:20:29;3.43;;;3.03;;
15673;SDS011;7937;48.090;16.212;2024-03-23T02:23:30;3.50;;;2.87;;
15673;SDS011;7937;48.090;16.212;2024-03-23T02:26:31;4.33;;;2.73;;
15673;SDS011;7937;48.090;16.212;2024-03-23T02:29:32;3.17;;;2.87;;
15673;SDS011;7937;48.090;16.212;2024-03-23T02:32:33;4.70;;;2.87;;
15673;SDS011;7937;48.090;16.212;2024-03-23T02:35:34;4.23;;;2.77;;
15673;SDS011;7937;48.090;16.212;2024-03-23T02:38:35;4.43;;;2.63;;
15673;SDS011;7937;48.090;16.212;2024-03-23T02:41:36;6.73;;;2.83;;
15673;SDS011;7937;48.090;16.212;2024-03-23T02:44:37;5.63;;;2.80;;
15673;SDS011;7937;48.090;16.212;2024-03-23T02:47:38;2.90;;;2.60;;
15673;SDS011;7937;48.090;16.212;2024-03-23T02:50:39;2.70;;;2.47;;
15673;SDS011;7937;48.090;16.212;2024-03-23T02:53:40;4.27;;;2.60;;
15673;SDS011;7937;48.090;16.212;2024-03-23T02:56:41;5.37;;;2.53;;
15673;SDS011;7937;48.090;16.212;2024-03-23T02:59:42;2.63;;;2.43;;
15673;SDS011;7937;48.090;16.212;2024-03-23T03:02:44;3.17;;;2.87;;
15673;SDS011;7937;48.090;16.212;2024-03-23T03:05:45;3.87;;;2.50;;
15673;SDS011;7937;48.090;16.212;2024-03-23T03:08:46;10.20;;;3.37;;
15673;SDS011;7937;48.090;16.212;2024-03-23T03:11:47;3.93;;;2.70;;
15673;SDS011;7937;48.090;16.212;2024-03-23T03:14:48;2.90;;;2.60;;
15673;SDS011;7937;48.090;16.212;2024-03-23T03:17:49;3.13;;;2.80;;
15673;SDS011;7937;48.090;16.212;2024-03-23T03:20:50;2.87;;;2.40;;
15673;SDS011;7937;48.090;16.212;2024-03-23T03:23:54;2.40;;;2.20;;
15673;SDS011;7937;48.090;16.212;2024-03-23T03:26:57;5.97;;;2.77;;
15673;SDS011;7937;48.090;16.212;2024-03-23T03:30:00;3.00;;;2.50;;
15673;SDS011;7937;48.090;16.212;2024-03-23T03:33:06;2.50;;;2.13;;
15673;SDS011;7937;48.090;16.212;2024-03-23T03:36:07;3.03;;;2.50;;
15673;SDS011;7937;48.090;16.212;2024-03-23T03:39:08;2.90;;;2.50;;
15673;SDS011;7937;48.090;16.212;2024-03-23T03:42:10;3.47;;;2.60;;
15673;SDS011;7937;48.090;16.212;2024-03-23T03:45:11;8.80;;;2.77;;
15673;SDS011;7937;48.090;16.212;2024-03-23T03:48:12;4.63;;;2.67;;
15673;SDS011;7937;48.090;16.212;2024-03-23T03:51:13;3.47;;;2.40;;
15673;SDS011;7937;48.090;16.212;2024-03-23T03:54:14;3.13;;;2.63;;
15673;SDS011;7937;48.090;16.212;2024-03-23T03:57:16;2.77;;;2.27;;
15673;SDS011;7937;48.090;16.212;2024-03-23T04:00:17;4.63;;;2.90;;
15673;SDS011;7937;48.090;16.212;2024-03-23T04:03:18;4.07;;;2.60;;
15673;SDS011;7937;48.090;16.212;2024-03-23T04:06:19;4.00;;;2.90;;
15673;SDS011;7937;48.090;16.212;2024-03-23T04:09:21;3.57;;;2.80;;
15673;SDS011;7937;48.090;16.212;2024-03-23T04:12:22;5.50;;;3.00;;
15673;SDS011;7937;48.090;16.212;2024-03-23T04:15:24;3.53;;;2.70;;
15673;SDS011;7937;48.090;16.212;2024-03-23T04:18:25;2.67;;;2.47;;
15673;SDS011;7937;48.090;16.212;2024-03-23T04:21:26;3.00;;;2.70;;
15673;SDS011;7937;48.090;16.212;2024-03-23T04:24:27;3.23;;;2.63;;
15673;SDS011;7937;48.090;16.212;2024-03-23T04:27:28;3.10;;;2.50;;
15673;SDS011;7937;48.090;16.212;2024-03-23T04:30:29;3.30;;;2.43;;
15673;SDS011;7937;48.090;16.212;2024-03-23T04:33:30;4.33;;;2.60;;
15673;SDS011;7937;48.090;16.212;2024-03-23T04:36:32;5.03;;;2.77;;
15673;SDS011;7937;48.090;16.212;2024-03-23T04:39:33;2.93;;;2.63;;
15673;SDS011;7937;48.090;16.212;2024-03-23T04:42:34;2.50;;;2.30;;
15673;SDS011;7937;48.090;16.212;2024-03-23T04:45:35;2.60;;;2.40;;
15673;SDS011;7937;48.090;16.212;2024-03-23T04:48:36;3.43;;;2.40;;
15673;SDS011;7937;48.090;16.212;2024-03-23T04:51:37;3.33;;;2.30;;
15673;SDS011;7937;48.090;16.212;2024-03-23T04:54:38;4.77;;;1.93;;
15673;SDS011;7937;48.090;16.212;2024-03-23T04:57:41;3.80;;;2.40;;
15673;SDS011;7937;48.090;16.212;2024-03-23T05:00:42;2.47;;;2.07;;
15673;SDS011;7937;48.090;16.212;2024-03-23T05:03:42;2.27;;;2.07;;
15673;SDS011;7937;48.090;16.212;2024-03-23T05:06:43;4.60;;;1.97;;
15673;SDS011;7937;48.090;16.212;2024-03-23T05:09:45;2.73;;;2.47;;
15673;SDS011;7937;48.090;16.212;2024-03-23T05:12:46;4.80;;;2.53;;
15673;SDS011;7937;48.090;16.212;2024-03-23T05:15:56;3.93;;;2.23;;
15673;SDS011;7937;48.090;16.212;2024-03-23T05:18:57;2.53;;;2.33;;
15673;SDS011;7937;48.090;16.212;2024-03-23T05:21:58;4.23;;;2.70;;
15673;SDS011;7937;48.090;16.212;2024-03-23T05:25:00;3.10;;;2.50;;
15673;SDS011;7937;48.090;16.212;2024-03-23T05:28:01;3.17;;;2.43;;
15673;SDS011;7937;48.090;16.212;2024-03-23T05:31:02;2.73;;;2.17;;
15673;SDS011;7937;48.090;16.212;2024-03-23T05:34:04;2.47;;;2.27;;
15673;SDS011;7937;48.090;16.212;2024-03-23T05:37:05;2.90;;;2.50;;
15673;SDS011;7937;48.090;16.212;2024-03-23T05:40:06;4.27;;;2.40;;
15673;SDS011;7937;48.090;16.212;2024-03-23T05:43:09;2.50;;;2.30;;
15673;SDS011;7937;48.090;16.212;2024-03-23T05:46:10;2.70;;;2.37;;
15673;SDS011;7937;48.090;16.212;2024-03-23T05:49:11;3.07;;;2.37;;
15673;SDS011;7937;48.090;16.212;2024-03-23T05:52:12;2.90;;;2.13;;
15673;SDS011;7937;48.090;16.212;2024-03-23T05:55:14;6.93;;;3.20;;
15673;SDS011;7937;48.090;16.212;2024-03-23T05:58:15;2.67;;;2.47;;
15673;SDS011;7937;48.090;16.212;2024-03-23T06:01:17;4.63;;;2.50;;
15673;SDS011;7937;48.090;16.212;2024-03-23T06:04:18;3.27;;;2.00;;
15673;SDS011;7937;48.090;16.212;2024-03-23T06:07:19;3.17;;;2.43;;
15673;SDS011;7937;48.090;16.212;2024-03-23T06:10:20;4.10;;;2.00;;
15673;SDS011;7937;48.090;16.212;2024-03-23T06:13:21;2.80;;;2.60;;
15673;SDS011;7937;48.090;16.212;2024-03-23T06:16:30;2.27;;;2.07;;
15673;SDS011;7937;48.090;16.212;2024-03-23T06:19:31;2.57;;;2.37;;
15673;SDS011;7937;48.090;16.212;2024-03-23T06:22:32;4.13;;;2.17;;
15673;SDS011;7937;48.090;16.212;2024-03-23T06:25:34;3.20;;;2.90;;
15673;SDS011;7937;48.090;16.212;2024-03-23T06:28:35;8.23;;;2.50;;
15673;SDS011;7937;48.090;16.212;2024-03-23T06:31:36;2.40;;;2.20;;
15673;SDS011;7937;48.090;16.212;2024-03-23T06:34:37;4.63;;;2.60;;
15673;SDS011;7937;48.090;16.212;2024-03-23T06:37:38;2.77;;;2.57;;
15673;SDS011;7937;48.090;16.212;2024-03-23T06:40:42;2.80;;;2.53;;
15673;SDS011;7937;48.090;16.212;2024-03-23T06:43:43;3.57;;;2.70;;
15673;SDS011;7937;48.090;16.212;2024-03-23T06:46:44;2.57;;;2.10;;
15673;SDS011;7937;48.090;16.212;2024-03-23T06:49:45;2.43;;;2.23;;
15673;SDS011;7937;48.090;16.212;2024-03-23T06:52:46;4.00;;;2.20;;
15673;SDS011;7937;48.090;16.212;2024-03-23T06:55:51;3.03;;;2.70;;
15673;SDS011;7937;48.090;16.212;2024-03-23T06:58:53;3.30;;;2.23;;
15673;SDS011;7937;48.090;16.212;2024-03-23T07:01:54;2.97;;;2.57;;
15673;SDS011;7937;48.090;16.212;2024-03-23T07:04:55;3.47;;;2.60;;
15673;SDS011;7937;48.090;16.212;2024-03-23T07:07:56;4.60;;;2.40;;
15673;SDS011;7937;48.090;16.212;2024-03-23T07:10:57;3.03;;;2.50;;
15673;SDS011;7937;48.090;16.212;2024-03-23T07:13:58;3.63;;;2.70;;
15673;SDS011;7937;48.090;16.212;2024-03-23T07:16:59;4.67;;;2.70;;
15673;SDS011;7937;48.090;16.212;2024-03-23T07:20:00;4.73;;;2.60;;
15673;SDS011;7937;48.090;16.212;2024-03-23T07:23:04;3.60;;;2.43;;
15673;SDS011;7937;48.090;16.212;2024-03-23T07:26:05;2.50;;;2.30;;
15673;SDS011;7937;48.090;16.212;2024-03-23T07:29:06;2.63;;;2.43;;
15673;SDS011;7937;48.090;16.212;2024-03-23T07:32:07;3.33;;;2.57;;
15673;SDS011;7937;48.090;16.212;2024-03-23T07:35:08;2.87;;;2.50;;
15673;SDS011;7937;48.090;16.212;2024-03-23T07:38:09;4.97;;;2.57;;
15673;SDS011;7937;48.090;16.212;2024-03-23T07:41:11;2.73;;;2.07;;
15673;SDS011;7937;48.090;16.212;2024-03-23T07:44:21;2.87;;;2.37;;
15673;SDS011;7937;48.090;16.212;2024-03-23T07:47:22;2.63;;;2.00;;
15673;SDS011;7937;48.090;16.212;2024-03-23T07:50:23;2.30;;;2.10;;
15673;SDS011;7937;48.090;16.212;2024-03-23T07:53:25;2.10;;;1.80;;
15673;SDS011;7937;48.090;16.212;2024-03-23T07:56:26;1.80;;;1.70;;
15673;SDS011;7937;48.090;16.212;2024-03-23T07:59:27;2.07;;;1.60;;
15673;SDS011;7937;48.090;16.212;2024-03-23T08:02:31;2.17;;;2.00;;
15673;SDS011;7937;48.090;16.212;2024-03-23T08:05:32;2.03;;;1.80;;
15673;SDS011;7937;48.090;16.212;2024-03-23T08:08:34;1.73;;;1.63;;
15673;SDS011;7937;48.090;16.212;2024-03-23T08:11:35;1.60;;;1.27;;
15673;SDS011;7937;48.090;16.212;2024-03-23T08:14:36;2.60;;;1.50;;
15673;SDS011;7937;48.090;16.212;2024-03-23T08:17:37;1.90;;;1.27;;
15673;SDS011;7937;48.090;16.212;2024-03-23T08:20:38;1.20;;;1.10;;
15673;SDS011;7937;48.090;16.212;2024-03-23T08:23:40;0.87;;;0.80;;
15673;SDS011;7937;48.090;16.212;2024-03-23T08:26:41;1.73;;;1.07;;
15673;SDS011;7937;48.090;16.212;2024-03-23T08:29:42;1.57;;;1.10;;
15673;SDS011;7937;48.090;16.212;2024-03-23T08:32:43;1.40;;;0.97;;
15673;SDS011;7937;48.090;16.212;2024-03-23T08:35:52;3.33;;;1.30;;
15673;SDS011;7937;48.090;16.212;2024-03-23T08:38:55;3.57;;;0.90;;
15673;SDS011;7937;48.090;16.212;2024-03-23T08:41:56;1.87;;;0.80;;
15673;SDS011;7937;48.090;16.212;2024-03-23T08:44:57;1.80;;;1.03;;
15673;SDS011;7937;48.090;16.212;2024-03-23T08:47:58;1.77;;;1.00;;
15673;SDS011;7937;48.090;16.212;2024-03-23T08:51:02;1.50;;;0.80;;
15673;SDS011;7937;48.090;16.212;2024-03-23T08:54:04;1.97;;;1.10;;
15673;SDS011;7937;48.090;16.212;2024-03-23T08:57:05;1.43;;;0.80;;
15673;SDS011;7937;48.090;16.212;2024-03-23T09:00:07;2.20;;;1.10;;
15673;SDS011;7937;48.090;16.212;2024-03-23T09:03:09;1.30;;;1.00;;
15673;SDS011;7937;48.090;16.212;2024-03-23T09:06:11;1.83;;;1.13;;
15673;SDS011;7937;48.090;16.212;2024-03-23T09:09:13;2.13;;;1.10;;
15673;SDS011;7937;48.090;16.212;2024-03-23T09:12:14;0.80;;;0.80;;
15673;SDS011;7937;48.090;16.212;2024-03-23T09:15:15;3.00;;;1.03;;
15673;SDS011;7937;48.090;16.212;2024-03-23T09:18:16;1.47;;;1.00;;
15673;SDS011;7937;48.090;16.212;2024-03-23T09:21:18;2.17;;;1.13;;
15673;SDS011;7937;48.090;16.212;2024-03-23T09:24:19;4.87;;;1.10;;
15673;SDS011;7937;48.090;16.212;2024-03-23T09:27:20;1.57;;;0.90;;
15673;SDS011;7937;48.090;16.212;2024-03-23T09:30:21;1.47;;;1.00;;
15673;SDS011;7937;48.090;16.212;2024-03-23T09:33:22;2.90;;;1.10;;
15673;SDS011;7937;48.090;16.212;2024-03-23T09:36:23;1.67;;;1.17;;
15673;SDS011;7937;48.090;16.212;2024-03-23T09:39:24;1.60;;;0.83;;
15673;SDS011;7937;48.090;16.212;2024-03-23T09:42:25;2.13;;;0.90;;
15673;SDS011;7937;48.090;16.212;2024-03-23T09:45:27;2.20;;;0.97;;
15673;SDS011;7937;48.090;16.212;2024-03-23T09:48:29;1.40;;;0.70;;
15673;SDS011;7937;48.090;16.212;2024-03-23T09:51:31;1.83;;;0.90;;
15673;SDS011;7937;48.090;16.212;2024-03-23T09:54:32;2.37;;;1.00;;
15673;SDS011;7937;48.090;16.212;2024-03-23T09:57:34;1.97;;;1.17;;
15673;SDS011;7937;48.090;16.212;2024-03-23T10:00:35;1.90;;;0.97;;
15673;SDS011;7937;48.090;16.212;2024-03-23T10:03:44;1.83;;;0.90;;
15673;SDS011;7937;48.090;16.212;2024-03-23T10:06:46;1.27;;;0.80;;
15673;SDS011;7937;48.090;16.212;2024-03-23T10:09:47;0.90;;;0.80;;
15673;SDS011;7937;48.090;16.212;2024-03-23T10:12:49;1.53;;;0.93;;
15673;SDS011;7937;48.090;16.212;2024-03-23T10:15:56;1.60;;;0.80;;
15673;SDS011;7937;48.090;16.212;2024-03-23T10:18:58;3.37;;;1.27;;
15673;SDS011;7937;48.090;16.212;2024-03-23T10:21:59;0.70;;;0.70;;
15673;SDS011;7937;48.090;16.212;2024-03-23T10:25:10;0.90;;;0.60;;
15673;SDS011;7937;48.090;16.212;2024-03-23T10:28:12;3.93;;;2.60;;
15673;SDS011;7937;48.090;16.212;2024-03-23T10:31:13;1.30;;;0.80;;
15673;SDS011;7937;48.090;16.212;2024-03-23T10:34:14;1.07;;;0.80;;
15673;SDS011;7937;48.090;16.212;2024-03-23T10:37:15;2.33;;;1.00;;
15673;SDS011;7937;48.090;16.212;2024-03-23T10:40:17;2.53;;;0.93;;
15673;SDS011;7937;48.090;16.212;2024-03-23T10:43:18;3.07;;;0.93;;
15673;SDS011;7937;48.090;16.212;2024-03-23T10:46:20;2.17;;;1.20;;
15673;SDS011;7937;48.090;16.212;2024-03-23T10:49:21;1.00;;;0.90;;
15673;SDS011;7937;48.090;16.212;2024-03-23T10:52:22;3.70;;;1.10;;
15673;SDS011;7937;48.090;16.212;2024-03-23T10:55:24;2.17;;;0.93;;
15673;SDS011;7937;48.090;16.212;2024-03-23T10:58:33;1.83;;;0.90;;
15673;SDS011;7937;48.090;16.212;2024-03-23T11:01:55;2.60;;;0.87;;
15673;SDS011;7937;48.090;16.212;2024-03-23T11:04:57;2.73;;;1.10;;
15673;SDS011;7937;48.090;16.212;2024-03-23T11:07:58;2.00;;;1.17;;
15673;SDS011;7937;48.090;16.212;2024-03-23T11:11:12;1.00;;;0.83;;
15673;SDS011;7937;48.090;16.212;2024-03-23T11:14:23;2.60;;;1.10;;
15673;SDS011;7937;48.090;16.212;2024-03-23T11:17:25;1.07;;;0.77;;
15673;SDS011;7937;48.090;16.212;2024-03-23T11:20:31;1.40;;;0.80;;
15673;SDS011;7937;48.090;16.212;2024-03-23T11:23:33;1.73;;;0.80;;
15673;SDS011;7937;48.090;16.212;2024-03-23T11:26:38;1.67;;;0.77;;
15673;SDS011;7937;48.090;16.212;2024-03-23T11:29:40;1.03;;;0.93;;
15673;SDS011;7937;48.090;16.212;2024-03-23T11:32:42;3.70;;;1.10;;
15673;SDS011;7937;48.090;16.212;2024-03-23T11:35:47;1.67;;;1.00;;
15673;SDS011;7937;48.090;16.212;2024-03-23T11:38:48;2.73;;;1.00;;
15673;SDS011;7937;48.090;16.212;2024-03-23T11:41:50;2.17;;;1.17;;
15673;SDS011;7937;48.090;16.212;2024-03-23T11:44:52;1.93;;;1.20;;
15673;SDS011;7937;48.090;16.212;2024-03-23T11:48:04;2.50;;;1.10;;
15673;SDS011;7937;48.090;16.212;2024-03-23T11:51:12;2.60;;;1.13;;
15673;SDS011;7937;48.090;16.212;2024-03-23T11:54:13;1.40;;;1.17;;
15673;SDS011;7937;48.090;16.212;2024-03-23T11:57:15;3.37;;;1.23;;
15673;SDS011;7937;48.090;16.212;2024-03-23T12:00:20;2.77;;;0.93;;
15673;SDS011;7937;48.090;16.212;2024-03-23T12:03:22;2.03;;;1.17;;
15673;SDS011;7937;48.090;16.212;2024-03-23T12:06:26;3.03;;;1.13;;
15673;SDS011;7937;48.090;16.212;2024-03-23T12:09:27;1.07;;;0.80;;
15673;SDS011;7937;48.090;16.212;2024-03-23T12:12:28;2.90;;;1.33;;
15673;SDS011;7937;48.090;16.212;2024-03-23T12:15:30;1.93;;;1.10;;
15673;SDS011;7937;48.090;16.212;2024-03-23T12:18:31;1.33;;;1.13;;
15673;SDS011;7937;48.090;16.212;2024-03-23T12:21:32;1.53;;;1.17;;
15673;SDS011;7937;48.090;16.212;2024-03-23T12:24:34;2.87;;;1.57;;
15673;SDS011;7937;48.090;16.212;2024-03-23T12:27:42;3.73;;;1.33;;
15673;SDS011;7937;48.090;16.212;2024-03-23T12:30:43;3.93;;;1.20;;
15673;SDS011;7937;48.090;16.212;2024-03-23T12:33:44;3.63;;;1.10;;
15673;SDS011;7937;48.090;16.212;2024-03-23T12:36:45;2.17;;;1.20;;
15673;SDS011;7937;48.090;16.212;2024-03-23T12:39:48;1.83;;;1.20;;
15673;SDS011;7937;48.090;16.212;2024-03-23T12:42:49;3.57;;;1.70;;
15673;SDS011;7937;48.090;16.212;2024-03-23T12:45:51;3.73;;;1.40;;
15673;SDS011;7937;48.090;16.212;2024-03-23T12:48:51;2.63;;;1.33;;
15673;SDS011;7937;48.090;16.212;2024-03-23T12:51:54;1.40;;;1.30;;
15673;SDS011;7937;48.090;16.212;2024-03-23T12:54:56;2.03;;;1.30;;
15673;SDS011;7937;48.090;16.212;2024-03-23T12:57:57;1.73;;;0.90;;
15673;SDS011;7937;48.090;16.212;2024-03-23T13:00:58;1.67;;;0.83;;
15673;SDS011;7937;48.090;16.212;2024-03-23T13:03:59;1.97;;;0.80;;
15673;SDS011;7937;48.090;16.212;2024-03-23T13:07:02;1.87;;;0.93;;
15673;SDS011;7937;48.090;16.212;2024-03-23T13:10:03;0.70;;;0.70;;
15673;SDS011;7937;48.090;16.212;2024-03-23T13:13:08;2.40;;;0.83;;
15673;SDS011;7937;48.090;16.212;2024-03-23T13:16:09;1.00;;;0.90;;
15673;SDS011;7937;48.090;16.212;2024-03-23T13:19:10;1.07;;;0.80;;
15673;SDS011;7937;48.090;16.212;2024-03-23T13:22:11;0.90;;;0.70;;
15673;SDS011;7937;48.090;16.212;2024-03-23T13:25:12;0.70;;;0.70;;
15673;SDS011;7937;48.090;16.212;2024-03-23T13:28:13;0.97;;;0.70;;
15673;SDS011;7937;48.090;16.212;2024-03-23T13:31:14;1.97;;;0.80;;
15673;SDS011;7937;48.090;16.212;2024-03-23T13:34:15;1.97;;;1.00;;
15673;SDS011;7937;48.090;16.212;2024-03-23T13:37:17;2.30;;;0.90;;
15673;SDS011;7937;48.090;16.212;2024-03-23T13:40:18;3.87;;;0.80;;
15673;SDS011;7937;48.090;16.212;2024-03-23T13:43:20;0.93;;;0.60;;
15673;SDS011;7937;48.090;16.212;2024-03-23T13:46:21;0.87;;;0.70;;
15673;SDS011;7937;48.090;16.212;2024-03-23T13:49:26;0.77;;;0.77;;
15673;SDS011;7937;48.090;16.212;2024-03-23T13:52:29;0.60;;;0.60;;
15673;SDS011;7937;48.090;16.212;2024-03-23T13:55:32;1.00;;;0.70;;
15673;SDS011;7937;48.090;16.212;2024-03-23T13:58:33;0.63;;;0.50;;
15673;SDS011;7937;48.090;16.212;2024-03-23T14:01:34;1.20;;;0.93;;
15673;SDS011;7937;48.090;16.212;2024-03-23T14:04:35;1.63;;;0.83;;
15673;SDS011;7937;48.090;16.212;2024-03-23T14:07:36;1.47;;;0.80;;
15673;SDS011;7937;48.090;16.212;2024-03-23T14:10:41;1.17;;;0.80;;
15673;SDS011;7937;48.090;16.212;2024-03-23T14:13:43;0.80;;;0.80;;
15673;SDS011;7937;48.090;16.212;2024-03-23T14:16:45;0.90;;;0.87;;
15673;SDS011;7937;48.090;16.212;2024-03-23T14:19:46;2.10;;;0.90;;
15673;SDS011;7937;48.090;16.212;2024-03-23T14:22:47;2.87;;;1.23;;
15673;SDS011;7937;48.090;16.212;2024-03-23T14:25:49;1.10;;;0.80;;
15673;SDS011;7937;48.090;16.212;2024-03-23T14:28:50;0.97;;;0.90;;
15673;SDS011;7937;48.090;16.212;2024-03-23T14:31:51;0.90;;;0.83;;
15673;SDS011;7937;48.090;16.212;2024-03-23T14:34:52;1.10;;;1.00;;
15673;SDS011;7937;48.090;16.212;2024-03-23T14:37:55;1.77;;;1.20;;
15673;SDS011;7937;48.090;16.212;2024-03-23T14:41:00;1.60;;;1.20;;
15673;SDS011;7937;48.090;16.212;2024-03-23T14:44:05;1.17;;;1.07;;
15673;SDS011;7937;48.090;16.212;2024-03-23T14:47:07;2.00;;;0.90;;
15673;SDS011;7937;48.090;16.212;2024-03-23T14:50:08;0.80;;;0.80;;
15673;SDS011;7937;48.090;16.212;2024-03-23T14:53:12;1.47;;;1.10;;
15673;SDS011;7937;48.090;16.212;2024-03-23T14:56:15;1.37;;;0.70;;
15673;SDS011;7937;48.090;16.212;2024-03-23T14:59:16;0.60;;;0.60;;
15673;SDS011;7937;48.090;16.212;2024-03-23T15:02:17;1.47;;;1.03;;
15673;SDS011;7937;48.090;16.212;2024-03-23T15:05:18;0.70;;;0.70;;
15673;SDS011;7937;48.090;16.212;2024-03-23T15:08:20;1.00;;;0.90;;
15673;SDS011;7937;48.090;16.212;2024-03-23T15:11:21;0.80;;;0.60;;
15673;SDS011;7937;48.090;16.212;2024-03-23T15:14:23;1.90;;;0.57;;
15673;SDS011;7937;48.090;16.212;2024-03-23T15:17:24;0.83;;;0.40;;
15673;SDS011;7937;48.090;16.212;2024-03-23T15:20:25;2.87;;;0.70;;
15673;SDS011;7937;48.090;16.212;2024-03-23T15:23:26;1.17;;;0.40;;
15673;SDS011;7937;48.090;16.212;2024-03-23T15:26:27;1.00;;;0.40;;
15673;SDS011;7937;48.090;16.212;2024-03-23T15:29:28;1.23;;;0.50;;
15673;SDS011;7937;48.090;16.212;2024-03-23T15:32:30;1.10;;;0.60;;
15673;SDS011;7937;48.090;16.212;2024-03-23T15:35:31;0.50;;;0.50;;
15673;SDS011;7937;48.090;16.212;2024-03-23T15:38:32;1.60;;;0.53;;
15673;SDS011;7937;48.090;16.212;2024-03-23T15:41:33;1.37;;;0.80;;
15673;SDS011;7937;48.090;16.212;2024-03-23T15:44:36;1.87;;;0.50;;
15673;SDS011;7937;48.090;16.212;2024-03-23T15:47:37;1.97;;;0.70;;
15673;SDS011;7937;48.090;16.212;2024-03-23T15:50:38;1.20;;;0.70;;
15673;SDS011;7937;48.090;16.212;2024-03-23T15:53:39;0.80;;;0.50;;
15673;SDS011;7937;48.090;16.212;2024-03-23T15:56:40;0.53;;;0.47;;
15673;SDS011;7937;48.090;16.212;2024-03-23T15:59:42;0.57;;;0.50;;
15673;SDS011;7937;48.090;16.212;2024-03-23T16:02:43;0.80;;;0.50;;
15673;SDS011;7937;48.090;16.212;2024-03-23T16:05:52;2.10;;;0.50;;
15673;SDS011;7937;48.090;16.212;2024-03-23T16:09:07;1.63;;;0.93;;
15673;SDS011;7937;48.090;16.212;2024-03-23T16:12:09;0.40;;;0.40;;
15673;SDS011;7937;48.090;16.212;2024-03-23T16:15:11;2.07;;;0.43;;
15673;SDS011;7937;48.090;16.212;2024-03-23T16:18:12;0.77;;;0.57;;
15673;SDS011;7937;48.090;16.212;2024-03-23T16:21:13;3.10;;;0.63;;
15673;SDS011;7937;48.090;16.212;2024-03-23T16:24:14;0.60;;;0.60;;
15673;SDS011;7937;48.090;16.212;2024-03-23T16:27:15;0.50;;;0.50;;
15673;SDS011;7937;48.090;16.212;2024-03-23T16:30:16;0.87;;;0.60;;
15673;SDS011;7937;48.090;16.212;2024-03-23T16:33:17;0.50;;;0.50;;
15673;SDS011;7937;48.090;16.212;2024-03-23T16:36:18;0.70;;;0.60;;
15673;SDS011;7937;48.090;16.212;2024-03-23T16:39:20;1.10;;;0.70;;
15673;SDS011;7937;48.090;16.212;2024-03-23T16:42:21;0.93;;;0.80;;
15673;SDS011;7937;48.090;16.212;2024-03-23T16:45:22;2.00;;;1.10;;
15673;SDS011;7937;48.090;16.212;2024-03-23T16:48:23;0.67;;;0.67;;
15673;SDS011;7937;48.090;16.212;2024-03-23T16:51:25;1.07;;;0.67;;
15673;SDS011;7937;48.090;16.212;2024-03-23T16:54:26;0.77;;;0.50;;
15673;SDS011;7937;48.090;16.212;2024-03-23T16:57:28;1.83;;;0.80;;
15673;SDS011;7937;48.090;16.212;2024-03-23T17:00:29;1.07;;;0.60;;
15673;SDS011;7937;48.090;16.212;2024-03-23T17:03:30;2.27;;;1.70;;
15673;SDS011;7937;48.090;16.212;2024-03-23T17:06:31;1.97;;;0.57;;
15673;SDS011;7937;48.090;16.212;2024-03-23T17:09:32;2.33;;;0.60;;
15673;SDS011;7937;48.090;16.212;2024-03-23T17:12:33;0.87;;;0.83;;
15673;SDS011;7937;48.090;16.212;2024-03-23T17:15:44;0.67;;;0.67;;
15673;SDS011;7937;48.090;16.212;2024-03-23T17:18:46;1.00;;;0.80;;
15673;SDS011;7937;48.090;16.212;2024-03-23T17:21:47;2.40;;;0.80;;
15673;SDS011;7937;48.090;16.212;2024-03-23T17:24:51;0.93;;;0.83;;
15673;SDS011;7937;48.090;16.212;2024-03-23T17:27:53;0.80;;;0.80;;
15673;SDS011;7937;48.090;16.212;2024-03-23T17:30:54;1.57;;;0.80;;
15673;SDS011;7937;48.090;16.212;2024-03-23T17:33:55;0.90;;;0.70;;
15673;SDS011;7937;48.090;16.212;2024-03-23T17:36:56;0.80;;;0.80;;
15673;SDS011;7937;48.090;16.212;2024-03-23T17:39:57;0.80;;;0.80;;
15673;SDS011;7937;48.090;16.212;2024-03-23T17:42:58;0.80;;;0.70;;
15673;SDS011;7937;48.090;16.212;2024-03-23T17:45:59;0.87;;;0.67;;
15673;SDS011;7937;48.090;16.212;2024-03-23T17:49:01;1.80;;;0.80;;
15673;SDS011;7937;48.090;16.212;2024-03-23T17:52:08;1.00;;;0.90;;
15673;SDS011;7937;48.090;16.212;2024-03-23T17:55:11;1.17;;;0.87;;
15673;SDS011;7937;48.090;16.212;2024-03-23T17:58:14;1.63;;;0.93;;
15673;SDS011;7937;48.090;16.212;2024-03-23T18:01:20;1.47;;;0.70;;
15673;SDS011;7937;48.090;16.212;2024-03-23T18:04:24;0.80;;;0.77;;
15673;SDS011;7937;48.090;16.212;2024-03-23T18:07:25;1.43;;;1.00;;
15673;SDS011;7937;48.090;16.212;2024-03-23T18:10:27;1.63;;;1.10;;
15673;SDS011;7937;48.090;16.212;2024-03-23T18:13:28;2.93;;;1.20;;
15673;SDS011;7937;48.090;16.212;2024-03-23T18:16:30;1.80;;;1.10;;
15673;SDS011;7937;48.090;16.212;2024-03-23T18:19:32;0.93;;;0.83;;
15673;SDS011;7937;48.090;16.212;2024-03-23T18:22:33;1.37;;;1.10;;
15673;SDS011;7937;48.090;16.212;2024-03-23T18:25:34;1.13;;;0.90;;
15673;SDS011;7937;48.090;16.212;2024-03-23T18:28:35;1.03;;;0.97;;
15673;SDS011;7937;48.090;16.212;2024-03-23T18:31:36;1.03;;;0.80;;
15673;SDS011;7937;48.090;16.212;2024-03-23T18:34:37;1.43;;;0.87;;
15673;SDS011;7937;48.090;16.212;2024-03-23T18:37:39;1.37;;;1.03;;
15673;SDS011;7937;48.090;16.212;2024-03-23T18:40:45;1.63;;;1.20;;
15673;SDS011;7937;48.090;16.212;2024-03-23T18:43:52;2.00;;;1.17;;
15673;SDS011;7937;48.090;16.212;2024-03-23T18:46:54;1.80;;;1.23;;
15673;SDS011;7937;48.090;16.212;2024-03-23T18:49:55;1.37;;;1.23;;
15673;SDS011;7937;48.090;16.212;2024-03-23T18:53:00;1.93;;;1.40;;
15673;SDS011;7937;48.090;16.212;2024-03-23T18:56:03;1.33;;;1.10;;
15673;SDS011;7937;48.090;16.212;2024-03-23T18:59:05;2.47;;;1.47;;
15673;SDS011;7937;48.090;16.212;2024-03-23T19:02:09;2.63;;;1.60;;
15673;SDS011;7937;48.090;16.212;2024-03-23T19:05:10;4.00;;;1.67;;
15673;SDS011;7937;48.090;16.212;2024-03-23T19:08:11;1.93;;;1.30;;
15673;SDS011;7937;48.090;16.212;2024-03-23T19:11:13;3.20;;;1.90;;